createdAt,value
2017-10-03T00:00:50.670Z,18.65
2017-10-03T00:01:50.318Z,18.63
2017-10-03T00:02:50.309Z,18.65
2017-10-03T00:03:50.313Z,18.69
2017-10-03T00:04:50.288Z,18.70
2017-10-03T00:05:50.282Z,18.66
2017-10-03T00:06:50.708Z,18.67
2017-10-03T00:07:50.275Z,18.66
2017-10-03T00:08:50.271Z,18.69
2017-10-03T00:09:50.257Z,18.72
2017-10-03T00:10:50.248Z,18.72
2017-10-03T00:11:50.243Z,18.69
2017-10-03T00:12:50.265Z,18.60
2017-10-03T00:13:50.224Z,18.67
2017-10-03T00:14:50.224Z,18.69
2017-10-03T00:15:50.520Z,18.62
2017-10-03T00:16:50.203Z,18.62
2017-10-03T00:17:50.196Z,18.72
2017-10-03T00:18:50.192Z,18.65
2017-10-03T00:19:50.180Z,18.58
2017-10-03T00:20:50.184Z,18.72
2017-10-03T00:21:50.194Z,18.62
2017-10-03T00:22:50.164Z,18.72
2017-10-03T00:23:50.157Z,18.65
2017-10-03T00:24:50.146Z,18.57
2017-10-03T00:25:50.445Z,18.58
2017-10-03T00:26:50.134Z,18.66
2017-10-03T00:27:50.124Z,18.63
2017-10-03T00:28:50.117Z,18.63
2017-10-03T00:29:50.110Z,18.69
2017-10-03T00:30:50.105Z,18.65
2017-10-03T00:31:50.524Z,18.57
2017-10-03T00:32:50.086Z,18.65
2017-10-03T00:33:50.078Z,18.67
2017-10-03T00:34:50.073Z,18.66
2017-10-03T00:35:50.072Z,18.69
2017-10-03T00:36:50.061Z,18.73
2017-10-03T00:37:50.419Z,18.55
2017-10-03T00:38:50.042Z,18.66
2017-10-03T00:39:50.036Z,18.66
2017-10-03T00:40:50.031Z,18.69
2017-10-03T00:41:50.021Z,18.72
2017-10-03T00:42:50.016Z,18.66
2017-10-03T00:43:50.042Z,18.65
2017-10-03T00:44:49.997Z,18.58
2017-10-03T00:45:50.001Z,18.67
2017-10-03T00:46:49.983Z,18.65
2017-10-03T00:47:49.978Z,18.69
2017-10-03T00:48:50.406Z,18.67
2017-10-03T00:49:49.964Z,18.58
2017-10-03T00:50:49.961Z,18.60
2017-10-03T00:51:49.956Z,18.55
2017-10-03T00:52:49.940Z,18.66
2017-10-03T00:53:49.939Z,18.66
2017-10-03T00:54:49.953Z,18.69
2017-10-03T00:55:49.923Z,18.60
2017-10-03T00:56:49.911Z,18.73
2017-10-03T00:57:49.901Z,18.69
2017-10-03T00:58:49.894Z,18.65
2017-10-03T00:59:50.344Z,18.58
2017-10-03T01:00:49.881Z,18.63
2017-10-03T01:01:49.877Z,18.65
2017-10-03T01:02:49.864Z,18.57
2017-10-03T01:03:49.879Z,18.65
2017-10-03T01:04:49.854Z,18.57
2017-10-03T01:05:50.198Z,18.63
2017-10-03T01:06:49.840Z,18.55
2017-10-03T01:07:49.829Z,18.63
2017-10-03T01:08:49.826Z,18.55
2017-10-03T01:09:49.824Z,18.54
2017-10-03T01:10:49.808Z,18.58
2017-10-03T01:11:49.826Z,18.66
2017-10-03T01:12:49.796Z,18.54
2017-10-03T01:13:49.784Z,18.57
2017-10-03T01:14:50.150Z,18.54
2017-10-03T01:15:49.773Z,18.69
2017-10-03T01:16:49.763Z,18.65
2017-10-03T01:17:49.758Z,18.65
2017-10-03T01:18:49.748Z,18.63
2017-10-03T01:19:49.742Z,18.55
2017-10-03T01:20:50.038Z,18.55
2017-10-03T01:21:49.728Z,18.54
2017-10-03T01:22:49.724Z,18.51
2017-10-03T01:23:49.709Z,18.57
2017-10-03T01:24:49.709Z,18.58
2017-10-03T01:25:49.706Z,18.65
2017-10-03T01:26:50.054Z,18.52
2017-10-03T01:27:49.681Z,18.55
2017-10-03T01:28:49.680Z,18.63
2017-10-03T01:29:49.670Z,18.55
2017-10-03T01:30:49.662Z,18.55
2017-10-03T01:31:49.651Z,18.52
2017-10-03T01:32:49.994Z,18.52
2017-10-03T01:33:49.641Z,18.63
2017-10-03T01:34:49.635Z,18.55
2017-10-03T01:35:49.622Z,18.50
2017-10-03T01:36:49.618Z,18.66
2017-10-03T01:37:49.613Z,18.57
2017-10-03T01:38:49.987Z,18.57
2017-10-03T01:39:49.598Z,18.55
2017-10-03T01:40:49.589Z,18.58
2017-10-03T01:41:49.582Z,18.57
2017-10-03T01:42:49.574Z,18.54
2017-10-03T01:43:49.567Z,18.52
2017-10-03T01:44:49.938Z,18.57
2017-10-03T01:45:49.553Z,18.52
2017-10-03T01:46:49.546Z,18.67
2017-10-03T01:47:49.541Z,18.58
2017-10-03T01:48:49.537Z,18.60
2017-10-03T01:49:49.523Z,18.55
2017-10-03T01:50:49.907Z,18.55
2017-10-03T01:51:49.508Z,18.55
2017-10-03T01:52:49.508Z,18.52
2017-10-03T01:53:49.493Z,18.58
2017-10-03T01:54:49.490Z,18.62
2017-10-03T01:55:49.484Z,18.50
2017-10-03T01:56:49.907Z,18.52
2017-10-03T01:57:49.465Z,18.55
2017-10-03T01:58:49.456Z,18.57
2017-10-03T01:59:49.455Z,18.52
2017-10-03T02:00:49.444Z,18.54
2017-10-03T02:01:49.432Z,18.55
2017-10-03T02:02:49.862Z,18.57
2017-10-03T02:03:49.419Z,18.54
2017-10-03T02:04:49.416Z,18.60
2017-10-03T02:05:49.407Z,18.52
2017-10-03T02:06:49.398Z,18.55
2017-10-03T02:07:49.388Z,18.57
2017-10-03T02:08:49.752Z,18.51
2017-10-03T02:09:49.381Z,18.54
2017-10-03T02:10:49.365Z,18.51
2017-10-03T02:11:49.364Z,18.54
2017-10-03T02:12:49.356Z,18.54
2017-10-03T02:13:49.352Z,18.54
2017-10-03T02:14:49.746Z,18.57
2017-10-03T02:15:49.328Z,18.58
2017-10-03T02:16:49.327Z,18.58
2017-10-03T02:17:49.318Z,18.54
2017-10-03T02:18:49.310Z,18.55
2017-10-03T02:19:49.301Z,18.55
2017-10-03T02:20:49.658Z,18.55
2017-10-03T02:21:49.288Z,18.51
2017-10-03T02:22:49.278Z,18.52
2017-10-03T02:23:49.273Z,18.54
2017-10-03T02:24:49.269Z,18.57
2017-10-03T02:25:49.257Z,18.50
2017-10-03T02:26:49.650Z,18.52
2017-10-03T02:27:49.246Z,18.54
2017-10-03T02:28:49.233Z,18.57
2017-10-03T02:29:49.229Z,18.58
2017-10-03T02:30:49.221Z,18.55
2017-10-03T02:31:49.219Z,18.52
2017-10-03T02:32:49.651Z,18.51
2017-10-03T02:33:49.207Z,18.54
2017-10-03T02:34:49.201Z,18.55
2017-10-03T02:35:49.186Z,18.55
2017-10-03T02:36:49.179Z,18.58
2017-10-03T02:37:49.172Z,18.57
2017-10-03T02:38:49.585Z,18.51
2017-10-03T02:39:49.156Z,18.55
2017-10-03T02:40:49.147Z,18.58
2017-10-03T02:41:49.142Z,18.52
2017-10-03T02:42:49.132Z,18.50
2017-10-03T02:43:49.126Z,18.52
2017-10-03T02:44:49.564Z,18.54
2017-10-03T02:45:49.111Z,18.48
2017-10-03T02:46:49.105Z,18.52
2017-10-03T02:47:49.096Z,18.50
2017-10-03T02:48:49.090Z,18.57
2017-10-03T02:49:49.081Z,18.57
2017-10-03T02:50:49.409Z,18.54
2017-10-03T02:51:49.074Z,18.57
2017-10-03T02:52:49.057Z,18.45
2017-10-03T02:53:49.055Z,18.54
2017-10-03T02:54:49.045Z,18.47
2017-10-03T02:55:49.033Z,18.63
2017-10-03T02:56:49.064Z,18.52
2017-10-03T02:57:49.027Z,18.62
2017-10-03T02:58:49.019Z,18.58
2017-10-03T02:59:49.004Z,18.54
2017-10-03T03:00:49.003Z,18.44
2017-10-03T03:01:49.447Z,18.50
2017-10-03T03:02:48.985Z,18.52
2017-10-03T03:03:48.977Z,18.45
2017-10-03T03:04:48.975Z,18.55
2017-10-03T03:05:48.969Z,18.55
2017-10-03T03:06:48.956Z,18.52
2017-10-03T03:07:49.365Z,18.58
2017-10-03T03:08:48.940Z,18.52
2017-10-03T03:09:48.936Z,18.45
2017-10-03T03:10:48.925Z,18.50
2017-10-03T03:11:48.920Z,18.54
2017-10-03T03:12:48.914Z,18.54
2017-10-03T03:13:49.353Z,18.52
2017-10-03T03:14:48.895Z,18.52
2017-10-03T03:15:48.888Z,18.51
2017-10-03T03:16:48.883Z,18.52
2017-10-03T03:17:48.876Z,18.48
2017-10-03T03:18:48.870Z,18.50
2017-10-03T03:19:49.199Z,18.47
2017-10-03T03:20:48.855Z,18.60
2017-10-03T03:21:48.847Z,18.47
2017-10-03T03:22:48.837Z,18.41
2017-10-03T03:23:48.826Z,18.47
2017-10-03T03:24:48.818Z,18.48
2017-10-03T03:25:49.270Z,18.48
2017-10-03T03:26:48.807Z,18.45
2017-10-03T03:27:48.813Z,18.44
2017-10-03T03:28:48.792Z,18.55
2017-10-03T03:29:48.783Z,18.51
2017-10-03T03:30:48.779Z,18.48
2017-10-03T03:31:49.234Z,18.47
2017-10-03T03:32:48.769Z,18.48
2017-10-03T03:33:48.755Z,18.58
2017-10-03T03:34:48.750Z,18.52
2017-10-03T03:35:48.745Z,18.47
2017-10-03T03:36:48.737Z,18.47
2017-10-03T03:37:49.094Z,18.51
2017-10-03T03:38:48.721Z,18.48
2017-10-03T03:39:48.713Z,18.54
2017-10-03T03:40:48.701Z,18.45
2017-10-03T03:41:48.697Z,18.51
2017-10-03T03:42:48.687Z,18.48
2017-10-03T03:43:48.713Z,18.51
2017-10-03T03:44:48.673Z,18.47
2017-10-03T03:45:48.666Z,18.42
2017-10-03T03:46:48.662Z,18.47
2017-10-03T03:47:48.998Z,18.50
2017-10-03T03:48:48.654Z,18.45
2017-10-03T03:49:48.638Z,18.47
2017-10-03T03:50:48.633Z,18.51
2017-10-03T03:51:48.627Z,18.51
2017-10-03T03:52:48.625Z,18.51
2017-10-03T03:53:49.048Z,18.45
2017-10-03T03:54:48.603Z,18.51
2017-10-03T03:55:48.594Z,18.50
2017-10-03T03:56:48.589Z,18.44
2017-10-03T03:57:48.579Z,18.44
2017-10-03T03:58:48.572Z,18.48
2017-10-03T03:59:48.905Z,18.44
2017-10-03T04:00:48.552Z,18.47
2017-10-03T04:01:48.549Z,18.47
2017-10-03T04:02:48.547Z,18.47
2017-10-03T04:03:48.538Z,18.48
2017-10-03T04:04:48.529Z,18.48
2017-10-03T04:05:48.544Z,18.48
2017-10-03T04:06:48.512Z,18.50
2017-10-03T04:07:48.499Z,18.44
2017-10-03T04:08:48.503Z,18.45
2017-10-03T04:09:48.515Z,18.48
2017-10-03T04:10:48.481Z,18.45
2017-10-03T04:11:48.475Z,18.48
2017-10-03T04:12:48.467Z,18.51
2017-10-03T04:13:48.460Z,18.47
2017-10-03T04:14:48.872Z,18.50
2017-10-03T04:15:48.445Z,18.47
2017-10-03T04:16:48.436Z,18.45
2017-10-03T04:17:48.436Z,18.51
2017-10-03T04:18:48.418Z,18.44
2017-10-03T04:19:48.413Z,18.47
2017-10-03T04:20:48.431Z,18.50
2017-10-03T04:21:48.400Z,18.48
2017-10-03T04:22:48.400Z,18.50
2017-10-03T04:23:48.387Z,18.42
2017-10-03T04:24:48.674Z,18.50
2017-10-03T04:25:48.370Z,18.50
2017-10-03T04:26:48.359Z,18.45
2017-10-03T04:27:48.355Z,18.47
2017-10-03T04:28:48.350Z,18.44
2017-10-03T04:29:48.342Z,18.52
2017-10-03T04:30:48.634Z,18.52
2017-10-03T04:31:48.328Z,18.44
2017-10-03T04:32:48.316Z,18.50
2017-10-03T04:33:48.315Z,18.41
2017-10-03T04:34:48.300Z,18.50
2017-10-03T04:35:48.295Z,18.44
2017-10-03T04:36:48.650Z,18.47
2017-10-03T04:37:48.302Z,18.52
2017-10-03T04:38:48.274Z,18.52
2017-10-03T04:39:48.266Z,18.48
2017-10-03T04:40:48.259Z,18.50
2017-10-03T04:41:48.251Z,18.47
2017-10-03T04:42:48.566Z,18.51
2017-10-03T04:43:48.236Z,18.47
2017-10-03T04:44:48.233Z,18.45
2017-10-03T04:45:48.221Z,18.50
2017-10-03T04:46:48.221Z,18.50
2017-10-03T04:47:48.209Z,18.44
2017-10-03T04:48:48.508Z,18.39
2017-10-03T04:49:48.194Z,18.48
2017-10-03T04:50:48.187Z,18.45
2017-10-03T04:51:48.181Z,18.44
2017-10-03T04:52:48.182Z,18.44
2017-10-03T04:53:48.160Z,18.50
2017-10-03T04:54:48.586Z,18.48
2017-10-03T04:55:48.144Z,18.44
2017-10-03T04:56:48.139Z,18.44
2017-10-03T04:57:48.132Z,18.42
2017-10-03T04:58:48.121Z,18.45
2017-10-03T04:59:48.116Z,18.47
2017-10-03T05:00:48.540Z,18.44
2017-10-03T05:01:48.110Z,18.47
2017-10-03T05:02:48.104Z,18.47
2017-10-03T05:03:48.084Z,18.44
2017-10-03T05:04:48.089Z,18.45
2017-10-03T05:05:48.077Z,18.44
2017-10-03T05:06:48.587Z,18.44
2017-10-03T05:07:48.057Z,18.50
2017-10-03T05:08:48.054Z,18.47
2017-10-03T05:09:48.050Z,18.41
2017-10-03T05:10:48.039Z,18.42
2017-10-03T05:11:48.026Z,18.42
2017-10-03T05:12:48.051Z,18.42
2017-10-03T05:13:48.009Z,18.45
2017-10-03T05:14:48.005Z,18.45
2017-10-03T05:15:48.303Z,18.44
2017-10-03T05:16:47.992Z,18.48
2017-10-03T05:17:47.982Z,18.37
2017-10-03T05:18:47.974Z,18.42
2017-10-03T05:19:47.975Z,18.47
2017-10-03T05:20:47.961Z,18.41
2017-10-03T05:21:47.987Z,18.41
2017-10-03T05:22:47.946Z,18.37
2017-10-03T05:23:47.936Z,18.41
2017-10-03T05:24:47.940Z,18.37
2017-10-03T05:25:47.959Z,18.41
2017-10-03T05:26:47.916Z,18.41
2017-10-03T05:27:47.907Z,18.44
2017-10-03T05:28:47.900Z,18.42
2017-10-03T05:29:47.894Z,18.44
2017-10-03T05:30:47.913Z,18.41
2017-10-03T05:31:47.881Z,18.36
2017-10-03T05:32:47.869Z,18.44
2017-10-03T05:33:47.861Z,18.45
2017-10-03T05:34:47.853Z,18.41
2017-10-03T05:35:48.199Z,18.45
2017-10-03T05:36:47.846Z,18.39
2017-10-03T05:37:47.835Z,18.39
2017-10-03T05:38:47.828Z,18.42
2017-10-03T05:39:47.816Z,18.41
2017-10-03T05:40:47.816Z,18.39
2017-10-03T05:41:47.831Z,18.37
2017-10-03T05:42:47.802Z,18.39
2017-10-03T05:43:47.790Z,18.37
2017-10-03T05:44:47.783Z,18.39
2017-10-03T05:45:47.777Z,18.45
2017-10-03T05:46:48.208Z,18.44
2017-10-03T05:47:47.760Z,18.39
2017-10-03T05:48:47.756Z,18.39
2017-10-03T05:49:47.747Z,18.39
2017-10-03T05:50:47.737Z,18.41
2017-10-03T05:51:47.729Z,18.42
2017-10-03T05:52:48.168Z,18.37
2017-10-03T05:53:47.714Z,18.42
2017-10-03T05:54:47.710Z,18.41
2017-10-03T05:55:47.702Z,18.42
2017-10-03T05:56:47.691Z,18.45
2017-10-03T05:57:47.683Z,18.44
2017-10-03T05:58:48.069Z,18.41
2017-10-03T05:59:47.676Z,18.39
2017-10-03T06:00:47.669Z,18.42
2017-10-03T06:01:47.657Z,18.35
2017-10-03T06:02:47.644Z,18.45
2017-10-03T06:03:47.644Z,18.42
2017-10-03T06:04:48.002Z,18.37
2017-10-03T06:05:47.629Z,18.44
2017-10-03T06:06:47.616Z,18.41
2017-10-03T06:07:47.611Z,18.45
2017-10-03T06:08:47.600Z,18.42
2017-10-03T06:09:47.598Z,18.39
2017-10-03T06:10:47.609Z,18.44
2017-10-03T06:11:47.575Z,18.35
2017-10-03T06:12:47.571Z,18.39
2017-10-03T06:13:47.566Z,18.39
2017-10-03T06:14:47.982Z,18.39
2017-10-03T06:15:47.547Z,18.37
2017-10-03T06:16:47.543Z,18.37
2017-10-03T06:17:47.544Z,18.37
2017-10-03T06:18:47.522Z,18.37
2017-10-03T06:19:47.519Z,18.45
2017-10-03T06:20:47.848Z,18.36
2017-10-03T06:21:47.503Z,18.39
2017-10-03T06:22:47.497Z,18.37
2017-10-03T06:23:47.495Z,18.39
2017-10-03T06:24:47.483Z,18.36
2017-10-03T06:25:47.474Z,18.36
2017-10-03T06:26:47.844Z,18.39
2017-10-03T06:27:47.458Z,18.44
2017-10-03T06:28:47.456Z,18.42
2017-10-03T06:29:47.442Z,18.39
2017-10-03T06:30:47.435Z,18.42
2017-10-03T06:31:47.435Z,18.42
2017-10-03T06:32:47.779Z,18.36
2017-10-03T06:33:47.413Z,18.41
2017-10-03T06:34:47.410Z,18.42
2017-10-03T06:35:47.401Z,18.39
2017-10-03T06:36:47.390Z,18.41
2017-10-03T06:37:47.385Z,18.39
2017-10-03T06:38:47.794Z,18.41
2017-10-03T06:39:47.370Z,18.36
2017-10-03T06:40:47.361Z,18.39
2017-10-03T06:41:47.354Z,18.42
2017-10-03T06:42:47.353Z,18.39
2017-10-03T06:43:47.348Z,18.35
2017-10-03T06:44:47.776Z,18.36
2017-10-03T06:45:47.325Z,18.36
2017-10-03T06:46:47.318Z,18.37
2017-10-03T06:47:47.307Z,18.36
2017-10-03T06:48:47.300Z,18.33
2017-10-03T06:49:47.298Z,18.37
2017-10-03T06:50:47.323Z,18.39
2017-10-03T06:51:47.277Z,18.36
2017-10-03T06:52:47.273Z,18.36
2017-10-03T06:53:47.267Z,18.37
2017-10-03T06:54:47.259Z,18.35
2017-10-03T06:55:47.253Z,18.37
2017-10-03T06:56:47.603Z,18.36
2017-10-03T06:57:47.235Z,18.37
2017-10-03T06:58:47.227Z,18.37
2017-10-03T06:59:47.222Z,18.41
2017-10-03T07:00:47.220Z,18.37
2017-10-03T07:01:47.208Z,18.41
2017-10-03T07:02:47.598Z,18.33
2017-10-03T07:03:47.196Z,18.41
2017-10-03T07:04:47.179Z,18.39
2017-10-03T07:05:47.172Z,18.44
2017-10-03T07:06:47.172Z,18.39
2017-10-03T07:07:47.172Z,18.39
2017-10-03T07:08:47.178Z,18.42
2017-10-03T07:09:47.142Z,18.37
2017-10-03T07:10:47.144Z,18.42
2017-10-03T07:11:47.129Z,18.44
2017-10-03T07:12:47.119Z,18.36
2017-10-03T07:13:47.515Z,18.37
2017-10-03T07:14:47.105Z,18.37
2017-10-03T07:15:47.098Z,18.36
2017-10-03T07:16:47.096Z,18.41
2017-10-03T07:17:47.080Z,18.42
2017-10-03T07:18:47.075Z,18.35
2017-10-03T07:19:47.393Z,18.39
2017-10-03T07:20:47.062Z,18.41
2017-10-03T07:21:47.065Z,18.37
2017-10-03T07:22:47.049Z,18.37
2017-10-03T07:23:47.038Z,18.36
2017-10-03T07:24:47.031Z,18.37
2017-10-03T07:25:47.418Z,18.37
2017-10-03T07:26:47.025Z,18.42
2017-10-03T07:27:47.005Z,18.36
2017-10-03T07:28:47.001Z,18.37
2017-10-03T07:29:46.996Z,18.39
2017-10-03T07:30:46.985Z,18.44
2017-10-03T07:31:47.467Z,18.42
2017-10-03T07:32:46.978Z,18.39
2017-10-03T07:33:46.962Z,18.44
2017-10-03T07:34:46.958Z,18.39
2017-10-03T07:35:46.952Z,18.42
2017-10-03T07:36:46.944Z,18.36
2017-10-03T07:37:47.235Z,18.39
2017-10-03T07:38:46.931Z,18.45
2017-10-03T07:39:46.921Z,18.36
2017-10-03T07:40:46.911Z,18.37
2017-10-03T07:41:46.906Z,18.41
2017-10-03T07:42:46.896Z,18.39
2017-10-03T07:43:47.359Z,18.42
2017-10-03T07:44:46.881Z,18.42
2017-10-03T07:45:46.875Z,18.39
2017-10-03T07:46:46.871Z,18.42
2017-10-03T07:47:46.868Z,18.47
2017-10-03T07:48:46.850Z,18.44
2017-10-03T07:49:47.220Z,18.45
2017-10-03T07:50:46.835Z,18.39
2017-10-03T07:51:46.832Z,18.47
2017-10-03T07:52:46.821Z,18.39
2017-10-03T07:53:46.818Z,18.42
2017-10-03T07:54:46.808Z,18.36
2017-10-03T07:55:47.098Z,18.39
2017-10-03T07:56:46.791Z,18.42
2017-10-03T07:57:46.790Z,18.37
2017-10-03T07:58:46.776Z,18.44
2017-10-03T07:59:46.771Z,18.39
2017-10-03T08:00:46.764Z,18.37
2017-10-03T08:01:47.153Z,18.37
2017-10-03T08:02:46.747Z,18.44
2017-10-03T08:03:46.739Z,18.41
2017-10-03T08:04:46.729Z,18.41
2017-10-03T08:05:46.734Z,18.42
2017-10-03T08:06:46.718Z,18.44
2017-10-03T08:07:47.090Z,18.39
2017-10-03T08:08:46.715Z,18.45
2017-10-03T08:09:46.691Z,18.39
2017-10-03T08:10:46.686Z,18.41
2017-10-03T08:11:46.675Z,18.35
2017-10-03T08:12:46.674Z,18.42
2017-10-03T08:13:46.693Z,18.44
2017-10-03T08:14:46.660Z,18.39
2017-10-03T08:15:46.651Z,18.39
2017-10-03T08:16:46.645Z,18.44
2017-10-03T08:17:46.658Z,18.39
2017-10-03T08:18:46.630Z,18.44
2017-10-03T08:19:46.624Z,18.39
2017-10-03T08:20:46.622Z,18.41
2017-10-03T08:21:46.608Z,18.42
2017-10-03T08:22:46.983Z,18.47
2017-10-03T08:23:46.597Z,18.45
2017-10-03T08:24:46.583Z,18.41
2017-10-03T08:25:46.569Z,18.39
2017-10-03T08:26:46.574Z,18.47
2017-10-03T08:27:46.560Z,18.42
2017-10-03T08:28:46.986Z,18.44
2017-10-03T08:29:46.573Z,18.41
2017-10-03T08:30:46.539Z,18.39
2017-10-03T08:31:46.533Z,18.42
2017-10-03T08:32:46.524Z,18.42
2017-10-03T08:33:46.517Z,18.41
2017-10-03T08:34:46.911Z,18.47
2017-10-03T08:35:46.500Z,18.41
2017-10-03T08:36:46.497Z,18.41
2017-10-03T08:37:46.486Z,18.39
2017-10-03T08:38:46.477Z,18.42
2017-10-03T08:39:46.475Z,18.44
2017-10-03T08:40:46.913Z,18.42
2017-10-03T08:41:46.459Z,18.44
2017-10-03T08:42:46.448Z,18.42
2017-10-03T08:43:46.438Z,18.44
2017-10-03T08:44:46.432Z,18.42
2017-10-03T08:45:46.428Z,18.47
2017-10-03T08:46:46.442Z,18.44
2017-10-03T08:47:46.410Z,18.39
2017-10-03T08:48:46.404Z,18.44
2017-10-03T08:49:46.396Z,18.45
2017-10-03T08:50:46.779Z,18.45
2017-10-03T08:51:46.381Z,18.44
2017-10-03T08:52:46.369Z,18.44
2017-10-03T08:53:46.366Z,18.45
2017-10-03T08:54:46.361Z,18.44
2017-10-03T08:55:46.355Z,18.48
2017-10-03T08:56:46.743Z,18.50
2017-10-03T08:57:46.336Z,18.42
2017-10-03T08:58:46.331Z,18.45
2017-10-03T08:59:46.321Z,18.48
2017-10-03T09:00:46.314Z,18.45
2017-10-03T09:01:46.310Z,18.45
2017-10-03T09:02:46.670Z,18.44
2017-10-03T09:03:46.288Z,18.47
2017-10-03T09:04:46.286Z,18.50
2017-10-03T09:05:46.276Z,18.45
2017-10-03T09:06:46.270Z,18.42
2017-10-03T09:07:46.259Z,18.44
2017-10-03T09:08:46.282Z,18.44
2017-10-03T09:09:46.244Z,18.47
2017-10-03T09:10:46.238Z,18.42
2017-10-03T09:11:46.228Z,18.50
2017-10-03T09:12:46.614Z,18.50
2017-10-03T09:13:46.213Z,18.45
2017-10-03T09:14:46.210Z,18.50
2017-10-03T09:15:46.202Z,18.44
2017-10-03T09:16:46.196Z,18.44
2017-10-03T09:17:46.189Z,18.44
2017-10-03T09:18:46.483Z,18.45
2017-10-03T09:19:46.172Z,18.51
2017-10-03T09:20:46.163Z,18.47
2017-10-03T09:21:46.159Z,18.47
2017-10-03T09:22:46.160Z,18.51
2017-10-03T09:23:46.141Z,18.45
2017-10-03T09:24:46.569Z,18.47
2017-10-03T09:25:46.123Z,18.44
2017-10-03T09:26:46.120Z,18.50
2017-10-03T09:27:46.115Z,18.48
2017-10-03T09:28:46.106Z,18.48
2017-10-03T09:29:46.099Z,18.54
2017-10-03T09:30:46.547Z,18.52
2017-10-03T09:31:46.081Z,18.47
2017-10-03T09:32:46.076Z,18.45
2017-10-03T09:33:46.069Z,18.47
2017-10-03T09:34:46.057Z,18.48
2017-10-03T09:35:46.058Z,18.51
2017-10-03T09:36:46.368Z,18.47
2017-10-03T09:37:46.047Z,18.48
2017-10-03T09:38:46.028Z,18.51
2017-10-03T09:39:46.023Z,18.48
2017-10-03T09:40:46.016Z,18.47
2017-10-03T09:41:46.007Z,18.45
2017-10-03T09:42:46.361Z,18.48
2017-10-03T09:43:45.995Z,18.50
2017-10-03T09:44:45.984Z,18.51
2017-10-03T09:45:45.979Z,18.55
2017-10-03T09:46:45.978Z,18.47
2017-10-03T09:47:45.961Z,18.47
2017-10-03T09:48:46.276Z,18.51
2017-10-03T09:49:45.950Z,18.48
2017-10-03T09:50:45.939Z,18.47
2017-10-03T09:51:45.936Z,18.52
2017-10-03T09:52:45.927Z,18.47
2017-10-03T09:53:45.920Z,18.48
2017-10-03T09:54:46.281Z,18.47
2017-10-03T09:55:45.906Z,18.50
2017-10-03T09:56:45.893Z,18.47
2017-10-03T09:57:45.894Z,18.45
2017-10-03T09:58:45.883Z,18.48
2017-10-03T09:59:45.870Z,18.47
2017-10-03T10:00:46.183Z,18.50
2017-10-03T10:01:45.856Z,18.48
2017-10-03T10:02:45.851Z,18.51
2017-10-03T10:03:45.846Z,18.47
2017-10-03T10:04:45.837Z,18.51
2017-10-03T10:05:45.831Z,18.47
2017-10-03T10:06:45.857Z,18.47
2017-10-03T10:07:46.214Z,18.47
2017-10-03T10:08:45.816Z,18.47
2017-10-03T10:09:45.800Z,18.48
2017-10-03T10:10:45.790Z,18.50
2017-10-03T10:11:45.784Z,18.47
2017-10-03T10:12:45.787Z,18.50
2017-10-03T10:13:45.797Z,18.44
2017-10-03T10:14:45.769Z,18.44
2017-10-03T10:15:45.755Z,18.52
2017-10-03T10:16:45.757Z,18.51
2017-10-03T10:17:45.740Z,18.48
2017-10-03T10:18:45.769Z,18.47
2017-10-03T10:19:45.722Z,18.52
2017-10-03T10:20:45.719Z,18.48
2017-10-03T10:21:45.707Z,18.50
2017-10-03T10:22:45.707Z,18.51
2017-10-03T10:23:45.721Z,18.48
2017-10-03T10:24:45.688Z,18.44
2017-10-03T10:25:45.691Z,18.50
2017-10-03T10:26:45.677Z,18.45
2017-10-03T10:27:45.673Z,18.47
2017-10-03T10:28:46.056Z,18.47
2017-10-03T10:29:45.652Z,18.48
2017-10-03T10:30:45.645Z,18.47
2017-10-03T10:31:45.641Z,18.50
2017-10-03T10:32:45.629Z,18.48
2017-10-03T10:33:45.621Z,18.47
2017-10-03T10:34:45.998Z,18.45
2017-10-03T10:35:45.607Z,18.48
2017-10-03T10:36:45.598Z,18.44
2017-10-03T10:37:45.591Z,18.52
2017-10-03T10:38:45.593Z,18.50
2017-10-03T10:39:45.579Z,18.51
2017-10-03T10:40:45.607Z,18.51
2017-10-03T10:41:45.563Z,18.52
2017-10-03T10:42:45.555Z,18.51
2017-10-03T10:43:45.545Z,18.48
2017-10-03T10:44:45.539Z,18.54
2017-10-03T10:45:45.562Z,18.48
2017-10-03T10:46:45.527Z,18.48
2017-10-03T10:47:45.517Z,18.52
2017-10-03T10:48:45.507Z,18.47
2017-10-03T10:49:45.505Z,18.51
2017-10-03T10:50:45.798Z,18.51
2017-10-03T10:51:45.490Z,18.48
2017-10-03T10:52:45.484Z,18.54
2017-10-03T10:53:45.474Z,18.47
2017-10-03T10:54:45.464Z,18.55
2017-10-03T10:55:45.461Z,18.45
2017-10-03T10:56:45.779Z,18.50
2017-10-03T10:57:45.440Z,18.47
2017-10-03T10:58:45.436Z,18.51
2017-10-03T10:59:45.423Z,18.48
2017-10-03T11:00:45.418Z,18.60
2017-10-03T11:01:45.410Z,18.50
2017-10-03T11:02:45.446Z,18.54
2017-10-03T11:03:45.398Z,18.44
2017-10-03T11:04:45.394Z,18.47
2017-10-03T11:05:45.720Z,18.57
2017-10-03T11:06:45.380Z,18.54
2017-10-03T11:07:45.366Z,18.48
2017-10-03T11:08:45.360Z,18.47
2017-10-03T11:09:45.354Z,18.48
2017-10-03T11:10:45.347Z,18.47
2017-10-03T11:11:45.719Z,18.58
2017-10-03T11:12:45.331Z,18.51
2017-10-03T11:13:45.322Z,18.47
2017-10-03T11:14:45.320Z,18.45
2017-10-03T11:15:45.307Z,18.48
2017-10-03T11:16:45.306Z,18.51
2017-10-03T11:17:45.676Z,18.48
2017-10-03T11:18:45.293Z,18.44
2017-10-03T11:19:45.278Z,18.48
2017-10-03T11:20:45.273Z,18.48
2017-10-03T11:21:45.262Z,18.44
2017-10-03T11:22:45.260Z,18.47
2017-10-03T11:23:45.702Z,18.51
2017-10-03T11:24:45.242Z,18.50
2017-10-03T11:25:45.235Z,18.50
2017-10-03T11:26:45.229Z,18.47
2017-10-03T11:27:45.221Z,18.47
2017-10-03T11:28:45.210Z,18.48
2017-10-03T11:29:45.560Z,18.41
2017-10-03T11:30:45.195Z,18.54
2017-10-03T11:31:45.193Z,18.51
2017-10-03T11:32:45.186Z,18.50
2017-10-03T11:33:45.177Z,18.50
2017-10-03T11:34:45.166Z,18.51
2017-10-03T11:35:45.629Z,18.51
2017-10-03T11:36:45.148Z,18.45
2017-10-03T11:37:45.145Z,18.54
2017-10-03T11:38:45.137Z,18.50
2017-10-03T11:39:45.131Z,18.45
2017-10-03T11:40:45.121Z,18.50
2017-10-03T11:41:45.146Z,18.50
2017-10-03T11:42:45.109Z,18.47
2017-10-03T11:43:45.100Z,18.48
2017-10-03T11:44:45.091Z,18.44
2017-10-03T11:45:45.086Z,18.47
2017-10-03T11:46:45.437Z,18.50
2017-10-03T11:47:45.071Z,18.48
2017-10-03T11:48:45.064Z,18.48
2017-10-03T11:49:45.056Z,18.50
2017-10-03T11:50:45.056Z,18.44
2017-10-03T11:51:45.039Z,18.44
2017-10-03T11:52:45.512Z,18.50
2017-10-03T11:53:45.028Z,18.47
2017-10-03T11:54:45.020Z,18.45
2017-10-03T11:55:45.006Z,18.48
2017-10-03T11:56:45.011Z,18.47
2017-10-03T11:57:44.995Z,18.51
2017-10-03T11:58:45.423Z,18.45
2017-10-03T11:59:44.977Z,18.52
2017-10-03T12:00:44.973Z,18.42
2017-10-03T12:01:44.970Z,18.52
2017-10-03T12:02:44.962Z,18.52
2017-10-03T12:03:44.949Z,18.48
2017-10-03T12:04:45.385Z,18.47
2017-10-03T12:05:44.937Z,18.41
2017-10-03T12:06:44.933Z,18.48
2017-10-03T12:07:44.922Z,18.50
2017-10-03T12:08:44.920Z,18.51
2017-10-03T12:09:44.905Z,18.48
2017-10-03T12:10:45.307Z,18.45
2017-10-03T12:11:44.897Z,18.48
2017-10-03T12:12:44.887Z,18.51
2017-10-03T12:13:44.876Z,18.47
2017-10-03T12:14:44.878Z,18.47
2017-10-03T12:15:44.862Z,18.51
2017-10-03T12:16:45.233Z,18.50
2017-10-03T12:17:44.856Z,18.50
2017-10-03T12:18:44.839Z,18.54
2017-10-03T12:19:44.830Z,18.48
2017-10-03T12:20:44.824Z,18.47
2017-10-03T12:21:44.822Z,18.51
2017-10-03T12:22:44.837Z,18.48
2017-10-03T12:23:44.806Z,18.47
2017-10-03T12:24:44.795Z,18.52
2017-10-03T12:25:44.789Z,18.47
2017-10-03T12:26:44.777Z,18.48
2017-10-03T12:27:45.224Z,18.55
2017-10-03T12:28:44.763Z,18.45
2017-10-03T12:29:44.765Z,18.48
2017-10-03T12:30:44.749Z,18.48
2017-10-03T12:31:44.743Z,18.44
2017-10-03T12:32:44.733Z,18.50
2017-10-03T12:33:45.038Z,18.54
2017-10-03T12:34:44.721Z,18.55
2017-10-03T12:35:44.712Z,18.51
2017-10-03T12:36:44.704Z,18.51
2017-10-03T12:37:44.702Z,18.54
2017-10-03T12:38:44.689Z,18.48
2017-10-03T12:39:45.132Z,18.57
2017-10-03T12:40:44.674Z,18.62
2017-10-03T12:41:44.666Z,18.52
2017-10-03T12:42:44.664Z,18.52
2017-10-03T12:43:44.659Z,18.58
2017-10-03T12:44:44.647Z,18.52
2017-10-03T12:45:44.665Z,18.50
2017-10-03T12:46:44.635Z,18.52
2017-10-03T12:47:44.624Z,18.48
2017-10-03T12:48:44.614Z,18.52
2017-10-03T12:49:44.999Z,18.52
2017-10-03T12:50:44.604Z,18.55
2017-10-03T12:51:44.601Z,18.52
2017-10-03T12:52:44.590Z,18.54